Time;durP1;ratioP1;P1;durP2;ratioP2;P2;SDS_P1;SDS_P2;PMS_P1;PMS_P2;Temp;Humidity;BMP_temperature;BMP_pressure;BME280_temperature;BME280_humidity;BME280_pressure;Samples;Min_cycle;Max_cycle;Signal;HPM_P1;HPM_P2
2023/03/07 00:08:20;;;;;;;19.90;13.30;;;;;;;-0.03;68.81;98815.53;20899255;28;20504;-79
2023/03/07 00:18:23;;;;;;;20.60;14.17;;;;;;;-0.23;68.74;98810.41;20902648;28;20516;-78
2023/03/07 00:28:25;;;;;;;15.60;10.83;;;;;;;-0.07;68.02;98804.25;20880112;28;20608;-81
2023/03/07 00:38:29;;;;;;;16.70;11.63;;;;;;;0.13;68.78;98793.84;20882198;28;20466;-79
2023/03/07 00:48:36;;;;;;;12.50;10.07;;;;;;;0.08;71.44;98794.81;20880614;28;20221;-80
2023/03/07 00:58:38;;;;;;;9.57;7.73;;;;;;;1.08;67.46;98781.59;20886424;28;20220;-80
2023/03/07 01:08:41;;;;;;;9.63;6.73;;;;;;;1.06;67.76;98774.72;20854948;28;20208;-80
2023/03/07 01:18:46;;;;;;;7.23;5.80;;;;;;;1.02;69.21;98764.22;20891925;28;20593;-80
2023/03/07 01:28:50;;;;;;;5.73;5.13;;;;;;;1.00;69.40;98762.91;20877966;28;20567;-79
2023/03/07 01:39:01;;;;;;;6.00;5.00;;;;;;;1.19;67.85;98757.19;20885210;28;20197;-79
2023/03/07 01:49:16;;;;;;;6.77;5.00;;;;;;;1.08;68.88;98748.25;20924250;28;20515;-79
2023/03/07 01:59:27;;;;;;;5.77;5.10;;;;;;;1.55;67.63;98730.03;20927181;28;20243;-80
2023/03/07 03:44:45;;;;;;;1.40;1.30;;;;;;;1.48;66.55;98662.13;20865220;28;20241;-80
2023/03/07 03:54:47;;;;;;;1.60;1.50;;;;;;;1.44;66.18;98652.78;20920644;28;20690;-81
2023/03/07 04:04:50;;;;;;;1.43;1.23;;;;;;;1.19;68.31;98651.56;20874783;28;20188;-81
2023/03/07 04:14:52;;;;;;;1.57;1.47;;;;;;;1.09;69.10;98649.03;20885419;28;20758;-80
2023/03/07 04:24:54;;;;;;;2.10;1.80;;;;;;;1.68;68.04;98630.91;20933667;28;20338;-80
2023/03/07 04:34:56;;;;;;;2.27;2.07;;;;;;;1.34;69.43;98620.53;20900379;28;20631;-80
2023/03/07 04:44:59;;;;;;;1.90;1.80;;;;;;;1.03;69.43;98615.00;20906156;28;20486;-80
2023/03/07 04:55:01;;;;;;;2.90;1.77;;;;;;;1.07;68.82;98604.91;20873722;28;20216;-79
2023/03/07 05:05:04;;;;;;;1.93;1.80;;;;;;;1.58;67.16;98592.28;20905065;28;20225;-79
2023/03/07 05:15:08;;;;;;;2.40;2.20;;;;;;;1.49;67.48;98575.63;20898110;28;20266;-81
2023/03/07 05:25:10;;;;;;;4.77;4.03;;;;;;;1.14;69.46;98576.63;20912480;28;20245;-80
2023/03/07 05:35:12;;;;;;;6.17;5.57;;;;;;;1.27;69.43;98570.16;20887011;28;20219;-79
2023/03/07 05:45:16;;;;;;;7.80;5.77;;;;;;;0.86;69.58;98560.22;20893518;28;20250;-80
2023/03/07 05:55:18;;;;;;;6.67;5.90;;;;;;;0.91;70.99;98562.81;20896172;28;20516;-79
2023/03/07 06:05:21;;;;;;;6.83;6.13;;;;;;;1.19;68.90;98551.50;20921171;28;20200;-79
2023/03/07 06:15:26;;;;;;;8.10;6.30;;;;;;;1.31;69.29;98548.91;20886774;28;20659;-79
2023/03/07 06:25:35;;;;;;;7.67;6.17;;;;;;;1.27;69.73;98547.91;20888788;28;20466;-79
2023/03/07 06:35:42;;;;;;;7.93;6.33;;;;;;;1.09;70.01;98535.94;20868333;28;20227;-80
2023/03/07 06:45:45;;;;;;;7.63;5.83;;;;;;;0.99;68.67;98547.34;20881292;28;20196;-80
2023/03/07 06:55:49;;;;;;;7.17;6.43;;;;;;;1.36;68.46;98534.88;20900480;28;20220;-79
2023/03/07 07:05:57;;;;;;;7.20;5.67;;;;;;;1.25;67.93;98527.97;20875711;28;20809;-81
2023/03/07 07:16:17;;;;;;;8.73;6.77;;;;;;;1.47;68.18;98525.06;20903954;28;20223;-80
2023/03/07 07:26:20;;;;;;;8.97;6.70;;;;;;;1.77;68.50;98522.47;20895625;28;20195;-80
2023/03/07 07:36:22;;;;;;;6.60;5.43;;;;;;;1.09;69.29;98524.00;20913802;28;20560;-80
2023/03/07 07:46:28;;;;;;;6.10;5.50;;;;;;;1.25;68.44;98520.47;20909673;28;20242;-80
2023/03/07 07:56:32;;;;;;;6.80;6.10;;;;;;;1.47;69.25;98524.25;20899196;28;20219;-80
2023/03/07 08:06:34;;;;;;;6.57;5.80;;;;;;;1.54;69.11;98525.38;20870256;28;20200;-80
2023/03/07 08:16:36;;;;;;;8.00;5.90;;;;;;;1.45;68.29;98521.78;20912609;28;20223;-80
2023/03/07 08:26:38;;;;;;;8.57;6.57;;;;;;;1.89;68.73;98519.84;20902168;28;20201;-80
2023/03/07 08:36:40;;;;;;;8.03;6.07;;;;;;;1.86;68.23;98528.81;20919639;28;20227;-80
2023/03/07 08:46:42;;;;;;;8.40;6.57;;;;;;;2.20;66.71;98526.00;20912769;28;20242;-80
2023/03/07 08:56:44;;;;;;;7.70;6.47;;;;;;;1.59;69.30;98533.56;20912072;28;20265;-80
2023/03/07 09:06:46;;;;;;;7.47;5.87;;;;;;;2.39;66.01;98540.38;20951310;28;20241;-80
2023/03/07 09:16:49;;;;;;;9.30;5.57;;;;;;;0.93;69.18;98560.56;20964097;28;20624;-80
2023/03/07 09:26:51;;;;;;;5.60;5.03;;;;;;;0.09;69.13;98568.91;20956162;28;20195;-80
2023/03/07 09:36:53;;;;;;;5.70;5.03;;;;;;;0.61;67.13;98581.16;20949159;28;20235;-81
2023/03/07 09:47:14;;;;;;;4.97;4.33;;;;;;;0.38;67.34;98598.16;20911911;28;20222;-82
2023/03/07 09:57:21;;;;;;;2.40;2.20;;;;;;;0.78;65.37;98585.16;20962130;28;20215;-82
2023/03/07 10:07:26;;;;;;;1.60;1.50;;;;;;;0.50;63.60;98593.66;20952335;28;20199;-81
2023/03/07 10:18:10;;;;;;;2.73;2.50;;;;;;;0.53;64.40;98597.78;20932007;28;20292;-80
2023/03/07 10:28:21;;;;;;;2.20;2.00;;;;;;;1.13;61.72;98614.72;20963985;28;20191;-80
2023/03/07 10:38:30;;;;;;;1.90;1.80;;;;;;;0.39;64.23;98622.00;20963423;28;20288;-80
2023/03/07 10:48:36;;;;;;;4.57;3.00;;;;;;;0.70;64.18;98628.41;20958956;28;20195;-81
2023/03/07 10:58:38;;;;;;;3.53;3.23;;;;;;;0.39;65.81;98630.34;20950514;28;20553;-81
2023/03/07 11:08:43;;;;;;;3.30;3.10;;;;;;;1.15;63.54;98631.06;20945550;28;20195;-81
2023/03/07 11:18:46;;;;;;;3.40;3.10;;;;;;;0.77;63.86;98628.78;20930631;28;21262;-81
2023/03/07 11:29:03;;;;;;;3.87;3.40;;;;;;;1.11;63.82;98635.66;20904742;28;20195;-80
2023/03/07 11:39:12;;;;;;;4.27;3.87;;;;;;;1.27;63.58;98632.13;20917056;28;20227;-81
2023/03/07 11:49:33;;;;;;;4.00;3.50;;;;;;;1.52;62.89;98636.13;20899732;28;20250;-81
2023/03/07 12:00:13;;;;;;;8.10;5.03;;;;;;;1.87;61.57;98650.09;20907126;28;20200;-81
2023/03/07 12:10:42;;;;;;;3.10;2.80;;;;;;;1.52;61.75;98640.84;20922222;28;20233;-81
2023/03/07 12:21:01;;;;;;;3.23;2.93;;;;;;;0.97;62.74;98642.13;20890121;28;20225;-82
2023/03/07 12:31:09;;;;;;;4.57;3.80;;;;;;;1.14;63.17;98640.53;20914741;28;20627;-82
2023/03/07 12:41:29;;;;;;;5.63;5.03;;;;;;;1.34;61.62;98642.78;20939008;28;20223;-81
2023/03/07 12:51:44;;;;;;;4.03;3.50;;;;;;;1.56;62.91;98623.22;20926082;28;20211;-82
2023/03/07 13:02:09;;;;;;;3.67;3.37;;;;;;;0.70;64.56;98639.53;20938201;28;20188;-81
2023/03/07 13:12:11;;;;;;;4.20;3.60;;;;;;;1.61;61.16;98625.84;20940001;28;20257;-82
2023/03/07 13:22:13;;;;;;;3.40;3.10;;;;;;;1.13;64.07;98630.56;20932427;28;20191;-81
2023/03/07 13:32:50;;;;;;;3.70;3.40;;;;;;;1.62;62.25;98627.50;20953668;28;20424;-84
2023/03/07 13:42:53;;;;;;;4.03;3.57;;;;;;;0.96;64.09;98621.03;20947810;28;20230;-82
2023/03/07 13:52:55;;;;;;;3.73;3.33;;;;;;;1.65;62.12;98621.25;20915797;28;20211;-81
2023/03/07 14:02:58;;;;;;;5.17;4.37;;;;;;;1.69;61.87;98633.38;20904050;28;20583;-82
2023/03/07 14:13:22;;;;;;;5.73;5.07;;;;;;;1.03;64.04;98640.00;20899839;28;20212;-81
2023/03/07 14:24:01;;;;;;;6.43;5.40;;;;;;;0.39;66.28;98638.66;20905545;28;20222;-81
2023/03/07 14:34:27;;;;;;;5.73;5.03;;;;;;;0.94;63.21;98634.44;20933514;28;20215;-81
2023/03/07 14:44:50;;;;;;;8.23;6.80;;;;;;;1.27;63.87;98648.81;20916883;28;20756;-81
2023/03/07 14:54:53;;;;;;;8.57;6.53;;;;;;;0.93;64.18;98643.91;20908263;28;20212;-81
2023/03/07 15:04:55;;;;;;;9.27;7.57;;;;;;;1.08;64.71;98641.84;20895983;28;20191;-81
2023/03/07 15:14:59;;;;;;;8.47;6.73;;;;;;;0.72;65.06;98640.03;20930475;28;20658;-81
2023/03/07 15:25:01;;;;;;;9.57;7.40;;;;;;;1.53;62.58;98648.06;20893485;28;20247;-82
2023/03/07 15:35:07;;;;;;;10.37;8.53;;;;;;;0.82;65.69;98647.28;20907594;28;20706;-80
2023/03/07 15:45:31;;;;;;;10.60;7.00;;;;;;;1.21;64.00;98644.53;20885310;28;20259;-81
2023/03/07 15:55:34;;;;;;;8.67;6.97;;;;;;;1.24;64.88;98648.66;20885214;28;20254;-81
2023/03/07 16:05:37;;;;;;;8.30;7.07;;;;;;;0.90;65.42;98652.84;20868851;28;20195;-80
2023/03/07 16:15:39;;;;;;;9.23;7.20;;;;;;;1.53;62.48;98654.44;20897141;28;20241;-81
2023/03/07 16:25:41;;;;;;;11.40;7.30;;;;;;;0.94;63.58;98661.38;20895511;28;20251;-81
2023/03/07 16:35:44;;;;;;;9.03;7.13;;;;;;;0.37;66.61;98674.25;20935804;28;20629;-79
2023/03/07 16:45:46;;;;;;;8.77;6.63;;;;;;;0.49;66.23;98678.09;20897158;28;20246;-80
2023/03/07 16:55:49;;;;;;;9.30;6.53;;;;;;;1.13;63.77;98680.59;20903298;28;20243;-80
2023/03/07 17:05:51;;;;;;;9.57;7.17;;;;;;;0.82;63.08;98703.66;20890664;28;20674;-80
2023/03/07 17:15:53;;;;;;;10.27;7.83;;;;;;;0.41;63.74;98725.22;20891701;28;20342;-79
2023/03/07 17:25:57;;;;;;;9.90;8.47;;;;;;;1.01;62.84;98737.59;20892742;28;20241;-80
2023/03/07 17:35:59;;;;;;;13.10;9.97;;;;;;;0.32;65.04;98762.06;20889253;28;20301;-79
2023/03/07 17:46:10;;;;;;;11.83;10.03;;;;;;;0.70;62.94;98772.84;20874643;28;20223;-79
2023/03/07 17:56:12;;;;;;;9.77;7.63;;;;;;;0.69;61.14;98793.41;20863678;28;20281;-81
2023/03/07 18:06:14;;;;;;;11.67;9.60;;;;;;;0.77;61.41;98806.53;20881870;28;20586;-80
2023/03/07 18:16:16;;;;;;;12.80;9.20;;;;;;;0.70;61.83;98822.81;20898291;28;20316;-80
2023/03/07 18:26:19;;;;;;;10.13;7.20;;;;;;;-0.07;64.02;98814.53;20857160;28;20270;-81
2023/03/07 18:36:24;;;;;;;10.83;8.90;;;;;;;0.49;63.87;98835.50;20869073;28;20311;-81
2023/03/07 18:46:29;;;;;;;13.83;10.73;;;;;;;0.42;62.80;98843.47;20883573;28;20818;-80
2023/03/07 18:56:32;;;;;;;13.23;9.73;;;;;;;0.24;62.81;98848.81;20866810;28;20248;-80
2023/03/07 19:06:39;;;;;;;9.47;7.97;;;;;;;0.16;63.36;98866.22;20868353;28;20193;-80
2023/03/07 19:16:41;;;;;;;11.97;9.57;;;;;;;0.18;63.25;98872.28;20851991;28;20692;-80
2023/03/07 19:26:43;;;;;;;11.93;9.13;;;;;;;0.23;63.00;98874.94;20841052;28;21131;-80
2023/03/07 19:36:46;;;;;;;12.17;9.17;;;;;;;0.16;64.26;98891.19;20828998;28;20297;-80
2023/03/07 19:46:48;;;;;;;11.60;8.87;;;;;;;0.11;63.08;98888.50;20862695;28;20220;-80
2023/03/07 19:56:50;;;;;;;12.00;9.50;;;;;;;-0.29;66.21;98878.19;20855944;28;20271;-80
2023/03/07 20:06:54;;;;;;;14.30;10.03;;;;;;;0.06;63.03;98896.94;20849085;28;20502;-79
2023/03/07 20:16:56;;;;;;;15.40;10.53;;;;;;;-0.07;63.66;98897.75;20854889;28;20231;-81
2023/03/07 20:26:59;;;;;;;12.93;10.20;;;;;;;-0.11;63.56;98902.25;20869198;28;20219;-79
2023/03/07 20:37:02;;;;;;;13.60;10.67;;;;;;;-0.49;65.07;98912.66;20845601;28;20270;-81
2023/03/07 20:47:04;;;;;;;14.73;11.43;;;;;;;-0.46;65.50;98926.75;20868039;28;20188;-80
2023/03/07 20:57:06;;;;;;;13.40;10.53;;;;;;;-0.61;65.18;98938.09;20871512;28;20251;-81
2023/03/07 21:07:08;;;;;;;13.70;10.10;;;;;;;-0.75;66.15;98945.47;20878517;28;20219;-80
2023/03/07 21:17:11;;;;;;;11.70;9.50;;;;;;;-0.65;65.33;98959.19;20870935;28;20426;-79
2023/03/07 21:27:14;;;;;;;11.40;8.43;;;;;;;-0.00;63.59;98950.03;20874913;28;20192;-81
2023/03/07 21:37:16;;;;;;;10.07;7.20;;;;;;;0.15;62.51;98961.69;20859950;28;20263;-81
2023/03/07 21:47:18;;;;;;;10.23;6.73;;;;;;;0.24;61.93;98970.94;20865615;28;20192;-81
2023/03/07 21:57:21;;;;;;;10.77;7.10;;;;;;;-0.52;64.04;98969.53;20876417;28;20215;-81
2023/03/07 22:07:23;;;;;;;10.07;6.57;;;;;;;-0.06;62.39;98982.63;20890602;28;20717;-82
2023/03/07 22:17:26;;;;;;;9.87;6.87;;;;;;;-0.04;63.17;98975.63;20892633;28;20224;-80
2023/03/07 22:27:28;;;;;;;12.63;8.40;;;;;;;-0.25;62.66;98984.59;20847228;28;20675;-80
2023/03/07 22:37:30;;;;;;;12.80;8.43;;;;;;;0.05;61.36;98978.53;20861997;28;20266;-80
2023/03/07 22:47:33;;;;;;;12.43;8.70;;;;;;;-0.52;63.99;99002.78;20861576;28;20193;-79
2023/03/07 22:57:35;;;;;;;10.70;7.13;;;;;;;-0.92;65.10;99003.34;20853739;28;20219;-80
2023/03/07 23:07:38;;;;;;;13.97;8.37;;;;;;;-0.38;64.00;99010.34;20851444;28;20201;-80
2023/03/07 23:17:40;;;;;;;11.67;7.73;;;;;;;0.11;62.49;99007.00;20908585;28;20562;-81
2023/03/07 23:27:42;;;;;;;16.43;10.43;;;;;;;0.41;60.32;99013.94;20926669;28;20196;-81
2023/03/07 23:37:46;;;;;;;16.40;11.80;;;;;;;-0.26;63.11;99011.50;20866486;28;20236;-80
2023/03/07 23:47:49;;;;;;;18.07;11.57;;;;;;;-0.17;62.46;99020.78;20835653;28;20200;-81
2023/03/07 23:57:51;;;;;;;14.67;11.67;;;;;;;-0.14;62.30;99009.09;20832558;28;20216;-81
